Mint Hill, North Carolina
Current Conditions -  °F | °C
As of 10:53 AM on Thursday 27 Nov 2014 (Local Time) from KEQY Reporting Station
Scattered Clouds Scattered Clouds  
Wind Chill: 42°   Ceiling: Unl
Heat Index: 48°   Visibility: 10mi
Dew Point: 33°   Wind: 15mph
Humidity: 56%   Direction: 300°WNW
Pressure: 30.07"   Gusts: 23mph
Location:  35.17°N, 80.66°W
Report Text: KEQY 271553Z AUTO 30013G20KT 10SM SCT036 09/01 A3007 RMK AO2 SLP199 T00890006
Loading
Personal Weather Stations






























Interactive Weather Map New forecast layout! Learn more

10-Day Weather Forecast

Advertisements
Track Severe Weather on mobile